Time;durP1;ratioP1;P1;durP2;ratioP2;P2;SDS_P1;SDS_P2;PMS_P1;PMS_P2;Temp;Humidity;BMP_temperature;BMP_pressure;BME280_temperature;BME280_humidity;BME280_pressure;Samples;Min_cycle;Max_cycle;Signal;HPM_P1;HPM_P2
2021/03/01 00:02:11;;;;;;;89.05;22.08;;;3.70;99.90;;;;;;5097201;28;20413;-68
2021/03/01 00:04:36;;;;;;;78.13;20.40;;;3.70;99.90;;;;;;5099165;28;20043;-68
2021/03/01 00:07:02;;;;;;;108.82;22.92;;;3.70;99.90;;;;;;5096274;28;20055;-68
2021/03/01 00:09:28;;;;;;;154.60;28.05;;;3.80;99.90;;;;;;5094094;28;20630;-68
2021/03/01 00:11:54;;;;;;;196.88;30.08;;;3.90;99.90;;;;;;5096850;28;20036;-68
2021/03/01 00:14:19;;;;;;;96.68;23.30;;;3.80;99.90;;;;;;5095230;28;20047;-68
2021/03/01 00:16:45;;;;;;;99.07;24.02;;;3.80;99.90;;;;;;5096099;28;20028;-68
2021/03/01 00:19:11;;;;;;;173.48;27.88;;;3.90;99.90;;;;;;5094966;28;20436;-68
2021/03/01 00:21:37;;;;;;;209.55;29.30;;;3.70;99.90;;;;;;5096819;28;20036;-68
2021/03/01 00:24:03;;;;;;;192.70;25.67;;;3.80;99.90;;;;;;5097337;28;20106;-68
2021/03/01 00:26:28;;;;;;;159.13;24.60;;;3.70;99.90;;;;;;5095327;28;20040;-68
2021/03/01 00:28:54;;;;;;;130.52;23.10;;;3.80;99.90;;;;;;5102926;28;20457;-68
2021/03/01 00:31:20;;;;;;;136.63;24.27;;;3.70;99.90;;;;;;5105397;28;20455;-68
2021/03/01 00:33:45;;;;;;;157.55;25.58;;;3.80;99.90;;;;;;5108583;28;20402;-68
2021/03/01 00:36:11;;;;;;;132.48;24.10;;;3.80;99.90;;;;;;5103596;28;20042;-67
2021/03/01 00:38:36;;;;;;;98.32;22.90;;;3.80;99.90;;;;;;5101621;28;20479;-67
2021/03/01 00:41:02;;;;;;;132.20;26.13;;;3.70;99.90;;;;;;5079819;28;20044;-67
2021/03/01 00:43:31;;;;;;;79.45;20.25;;;3.70;99.90;;;;;;5100148;28;20088;-68
2021/03/01 00:45:58;;;;;;;163.93;25.08;;;3.70;99.90;;;;;;5095507;28;20479;-67
2021/03/01 00:48:24;;;;;;;159.77;26.10;;;3.70;99.90;;;;;;5096184;28;20402;-68
2021/03/01 00:50:50;;;;;;;164.23;26.88;;;3.70;99.90;;;;;;5103363;28;20040;-68
2021/03/01 00:53:29;;;;;;;151.60;25.50;;;3.60;99.90;;;;;;5107331;28;20024;-68
2021/03/01 00:55:55;;;;;;;207.95;27.25;;;3.60;99.90;;;;;;5099017;28;20243;-68
2021/03/01 00:58:21;;;;;;;105.68;21.60;;;3.60;99.90;;;;;;5096082;28;20040;-68
2021/03/01 01:00:48;;;;;;;111.72;21.70;;;3.50;99.90;;;;;;5095308;28;20147;-67
2021/03/01 01:03:15;;;;;;;137.65;24.63;;;3.40;99.90;;;;;;5099135;28;20601;-67
2021/03/01 01:05:41;;;;;;;152.63;24.38;;;3.50;99.90;;;;;;5107227;28;20579;-68
2021/03/01 01:08:08;;;;;;;161.90;24.67;;;3.50;99.90;;;;;;5107392;28;20035;-68
2021/03/01 01:10:35;;;;;;;142.45;23.80;;;3.50;99.90;;;;;;5098837;28;20036;-68
2021/03/01 01:13:02;;;;;;;212.25;26.20;;;3.40;99.90;;;;;;5095203;28;20717;-68
2021/03/01 01:15:28;;;;;;;161.95;26.02;;;3.40;99.90;;;;;;5094724;28;20155;-68
2021/03/01 01:17:54;;;;;;;85.90;19.25;;;3.40;99.90;;;;;;5096114;28;20524;-68
2021/03/01 01:20:20;;;;;;;123.18;22.48;;;3.40;99.90;;;;;;5094577;28;20047;-67
2021/03/01 01:22:46;;;;;;;132.18;19.23;;;3.30;99.90;;;;;;5101262;28;20039;-67
2021/03/01 01:25:14;;;;;;;90.70;19.15;;;3.40;99.90;;;;;;5106957;28;20489;-68
2021/03/01 01:27:40;;;;;;;222.55;24.27;;;3.50;99.90;;;;;;5105758;28;20047;-68
2021/03/01 01:30:10;;;;;;;210.88;24.65;;;3.20;99.90;;;;;;5108125;28;20495;-67
2021/03/01 01:32:38;;;;;;;199.65;20.50;;;3.20;99.90;;;;;;5106791;28;20071;-67
2021/03/01 01:35:06;;;;;;;202.85;21.55;;;3.10;99.90;;;;;;5111227;28;20055;-68
2021/03/01 01:37:31;;;;;;;206.48;18.95;;;3.10;99.90;;;;;;5099147;28;20405;-68
2021/03/01 01:39:57;;;;;;;328.63;23.80;;;3.10;99.90;;;;;;5101932;28;20040;-67
2021/03/01 01:42:23;;;;;;;268.67;19.33;;;2.90;99.90;;;;;;5101195;28;20512;-67
2021/03/01 01:44:48;;;;;;;231.63;19.10;;;2.90;99.90;;;;;;5100772;28;21302;-67
2021/03/01 01:47:14;;;;;;;239.07;22.13;;;2.90;99.90;;;;;;5098915;28;20491;-67
2021/03/01 01:49:40;;;;;;;267.67;20.42;;;3.00;99.90;;;;;;5097367;28;20114;-67
2021/03/01 01:52:05;;;;;;;225.10;20.33;;;2.90;99.90;;;;;;5107927;28;20055;-67
2021/03/01 01:54:32;;;;;;;199.32;19.23;;;2.90;99.90;;;;;;5106451;28;20066;-67
2021/03/01 01:56:59;;;;;;;201.07;21.70;;;2.90;99.90;;;;;;5103898;28;20122;-67
2021/03/01 01:59:25;;;;;;;201.90;21.95;;;2.90;99.90;;;;;;5110555;28;20039;-67
2021/03/01 02:01:52;;;;;;;200.05;20.60;;;2.90;99.90;;;;;;5103295;28;20043;-67
2021/03/01 02:04:27;;;;;;;208.45;22.00;;;2.90;99.90;;;;;;5102094;28;20043;-67
2021/03/01 02:07:00;;;;;;;185.55;18.50;;;2.90;99.90;;;;;;5097981;28;20382;-67
2021/03/01 02:09:45;;;;;;;220.80;21.40;;;3.00;99.90;;;;;;5097281;28;20080;-68
2021/03/01 02:12:17;;;;;;;191.38;21.20;;;2.80;99.90;;;;;;5098801;28;20063;-67
2021/03/01 02:15:03;;;;;;;209.98;23.15;;;2.80;99.90;;;;;;5095545;28;21105;-67
2021/03/01 02:17:29;;;;;;;150.32;19.45;;;2.80;99.90;;;;;;5078232;28;20035;-67
2021/03/01 02:19:55;;;;;;;153.77;20.52;;;2.80;99.90;;;;;;5080434;28;20064;-67
2021/03/01 02:22:21;;;;;;;141.75;20.30;;;2.80;99.90;;;;;;5098846;28;20061;-67
2021/03/01 02:24:54;;;;;;;174.52;23.02;;;2.80;99.90;;;;;;5095524;28;20028;-67
2021/03/01 02:27:28;;;;;;;120.03;18.98;;;2.90;99.90;;;;;;5096670;28;20046;-67
2021/03/01 02:29:58;;;;;;;179.23;22.77;;;3.00;99.90;;;;;;5095627;28;20089;-67
2021/03/01 02:32:27;;;;;;;161.30;20.52;;;2.90;99.90;;;;;;5099985;28;20048;-67
2021/03/01 02:34:53;;;;;;;129.18;22.33;;;3.00;99.90;;;;;;5097865;28;20046;-67
2021/03/01 02:37:23;;;;;;;115.75;19.23;;;2.80;99.90;;;;;;5079091;28;20057;-68
2021/03/01 02:39:50;;;;;;;164.23;23.52;;;2.80;99.90;;;;;;5093641;28;20130;-67
2021/03/01 02:42:25;;;;;;;152.00;23.33;;;2.80;99.90;;;;;;5094313;28;20035;-67
2021/03/01 02:44:53;;;;;;;78.32;14.43;;;2.80;99.90;;;;;;5098437;28;20044;-67
2021/03/01 02:47:19;;;;;;;168.60;20.60;;;2.60;99.90;;;;;;5094416;28;20158;-67
2021/03/01 02:49:46;;;;;;;262.45;20.90;;;2.50;99.90;;;;;;5096828;28;20100;-67
2021/03/01 02:52:14;;;;;;;186.55;18.13;;;2.40;99.90;;;;;;5092878;28;20042;-67
2021/03/01 02:54:40;;;;;;;165.52;19.27;;;2.40;99.90;;;;;;5096161;28;20040;-67
2021/03/01 02:57:08;;;;;;;143.10;17.77;;;2.40;99.90;;;;;;5094717;28;20032;-67
2021/03/01 02:59:35;;;;;;;150.55;17.80;;;2.40;99.90;;;;;;5077905;28;20036;-67
2021/03/01 03:02:02;;;;;;;140.32;17.50;;;2.40;99.90;;;;;;5095774;28;20482;-67
2021/03/01 03:04:28;;;;;;;167.40;18.52;;;2.40;99.90;;;;;;5100837;28;20044;-67
2021/03/01 03:06:55;;;;;;;103.35;17.67;;;2.30;99.90;;;;;;5076525;28;20127;-67
2021/03/01 03:09:24;;;;;;;80.70;15.55;;;2.40;99.90;;;;;;5094223;28;20059;-67
2021/03/01 03:11:53;;;;;;;101.30;16.35;;;2.40;99.90;;;;;;5099545;28;20139;-67
2021/03/01 03:14:23;;;;;;;77.05;14.48;;;2.40;99.90;;;;;;5095836;27;20871;-67
2021/03/01 03:16:52;;;;;;;75.88;14.32;;;2.40;99.90;;;;;;5095891;27;20036;-67
2021/03/01 03:19:18;;;;;;;105.47;18.60;;;2.50;99.90;;;;;;5096317;28;20489;-67
2021/03/01 03:21:44;;;;;;;115.32;18.67;;;2.60;99.90;;;;;;5097782;28;20039;-67
2021/03/01 03:24:10;;;;;;;125.22;21.27;;;2.60;99.90;;;;;;5098951;28;20042;-67
2021/03/01 03:26:36;;;;;;;126.95;19.02;;;2.70;99.90;;;;;;5096623;28;20046;-67
2021/03/01 03:29:02;;;;;;;130.57;18.88;;;2.70;99.90;;;;;;5096056;28;20054;-67
2021/03/01 03:31:28;;;;;;;123.20;19.35;;;2.80;99.90;;;;;;5099242;28;20105;-67
2021/03/01 03:33:54;;;;;;;142.63;20.85;;;2.80;99.90;;;;;;5096459;28;20040;-67
2021/03/01 03:36:29;;;;;;;145.43;23.55;;;3.00;99.90;;;;;;5095385;28;20591;-68
2021/03/01 03:38:58;;;;;;;152.38;23.02;;;2.90;99.90;;;;;;5095826;28;20136;-67
2021/03/01 03:41:26;;;;;;;141.90;23.42;;;2.90;99.90;;;;;;5095248;28;20045;-67
2021/03/01 03:43:52;;;;;;;148.77;23.90;;;3.00;99.90;;;;;;5096588;28;20047;-67
2021/03/01 03:46:18;;;;;;;182.40;25.27;;;3.00;99.90;;;;;;5095745;28;20332;-68
2021/03/01 03:48:45;;;;;;;157.63;25.67;;;3.10;99.90;;;;;;5098982;28;20039;-67
2021/03/01 03:51:12;;;;;;;185.35;26.08;;;3.10;99.90;;;;;;5109220;28;20036;-67
2021/03/01 03:53:43;;;;;;;109.45;21.77;;;3.10;99.90;;;;;;5110074;28;20096;-67
2021/03/01 03:56:11;;;;;;;180.23;26.95;;;3.10;99.90;;;;;;5107461;28;20359;-68
2021/03/01 03:58:44;;;;;;;153.63;23.88;;;3.20;99.90;;;;;;5106965;28;20470;-68
2021/03/01 04:01:13;;;;;;;128.68;23.42;;;3.20;99.90;;;;;;5108759;28;20070;-68
2021/03/01 04:03:42;;;;;;;136.00;22.85;;;3.20;99.90;;;;;;5108949;28;20110;-68
2021/03/01 04:06:10;;;;;;;164.27;26.95;;;3.20;99.90;;;;;;5107106;28;20383;-67
2021/03/01 04:08:37;;;;;;;160.02;27.00;;;3.20;99.90;;;;;;5107192;28;20035;-68
2021/03/01 04:11:04;;;;;;;139.00;25.20;;;3.30;99.90;;;;;;5091363;28;20048;-68
2021/03/01 04:13:31;;;;;;;128.80;23.80;;;3.30;99.90;;;;;;5108767;28;20048;-68
2021/03/01 04:15:58;;;;;;;156.63;26.05;;;3.40;99.90;;;;;;5108953;28;20044;-67
2021/03/01 04:18:34;;;;;;;136.60;24.50;;;3.40;99.90;;;;;;5106990;28;20397;-67
2021/03/01 04:21:02;;;;;;;121.45;23.95;;;3.40;99.90;;;;;;5109170;27;20432;-67
2021/03/01 04:23:29;;;;;;;123.53;23.27;;;3.40;99.90;;;;;;5108399;28;20038;-67
2021/03/01 04:25:57;;;;;;;125.43;24.63;;;3.40;99.90;;;;;;5110047;28;20122;-67
2021/03/01 04:28:23;;;;;;;151.23;25.75;;;3.30;99.90;;;;;;5109710;28;20062;-68
2021/03/01 04:30:51;;;;;;;108.57;21.67;;;3.40;99.90;;;;;;5109572;28;20081;-68
2021/03/01 04:33:18;;;;;;;119.18;23.73;;;3.40;99.90;;;;;;5091199;28;20036;-68
2021/03/01 04:35:47;;;;;;;111.05;23.98;;;3.40;99.90;;;;;;5106143;28;20746;-68
2021/03/01 04:38:12;;;;;;;101.35;21.55;;;3.40;99.90;;;;;;5110056;28;20043;-67
2021/03/01 04:40:38;;;;;;;115.45;24.05;;;3.50;99.90;;;;;;5109501;28;20027;-67
2021/03/01 04:43:11;;;;;;;118.15;23.70;;;3.40;99.90;;;;;;5108963;28;20119;-67
2021/03/01 04:45:39;;;;;;;128.05;24.88;;;3.40;99.90;;;;;;5106339;28;20042;-68
2021/03/01 04:48:06;;;;;;;84.15;19.85;;;3.40;99.90;;;;;;5108869;28;20160;-68
2021/03/01 04:50:32;;;;;;;111.90;22.48;;;3.50;99.90;;;;;;5107379;28;20432;-68
2021/03/01 04:52:58;;;;;;;104.72;21.35;;;3.50;99.90;;;;;;5103966;28;20813;-68
2021/03/01 04:55:26;;;;;;;89.72;18.92;;;3.50;99.90;;;;;;5107194;28;20114;-68
2021/03/01 04:57:54;;;;;;;92.07;20.55;;;3.50;99.90;;;;;;5108200;28;20031;-68
2021/03/01 05:00:20;;;;;;;90.03;19.83;;;3.50;99.90;;;;;;5107106;28;20067;-68
2021/03/01 05:02:47;;;;;;;66.82;17.02;;;3.50;99.90;;;;;;5107678;28;20482;-68
2021/03/01 05:05:14;;;;;;;81.55;20.23;;;3.50;99.90;;;;;;5108150;28;20097;-68
2021/03/01 05:07:41;;;;;;;83.40;19.77;;;3.50;99.90;;;;;;5111499;28;20146;-68
2021/03/01 05:10:08;;;;;;;72.75;17.92;;;3.50;99.90;;;;;;5112607;28;20044;-68
2021/03/01 05:12:34;;;;;;;59.83;17.45;;;3.60;99.90;;;;;;5112426;28;20069;-68
2021/03/01 05:15:00;;;;;;;78.85;18.90;;;3.60;99.90;;;;;;5111443;28;20040;-68
2021/03/01 05:17:26;;;;;;;77.45;20.33;;;3.60;99.90;;;;;;5110632;28;20391;-68
2021/03/01 05:19:52;;;;;;;53.88;17.40;;;3.70;99.90;;;;;;5106961;28;20085;-68
2021/03/01 05:22:17;;;;;;;68.82;18.10;;;3.60;99.90;;;;;;5113665;28;20039;-68
2021/03/01 05:24:43;;;;;;;62.85;18.42;;;3.60;99.90;;;;;;5103985;28;20036;-68
2021/03/01 05:27:09;;;;;;;50.70;16.50;;;3.70;99.90;;;;;;5107021;28;20550;-68
2021/03/01 05:29:34;;;;;;;36.25;14.05;;;3.70;99.90;;;;;;5106680;28;20118;-68
2021/03/01 05:32:00;;;;;;;42.63;14.35;;;3.70;99.90;;;;;;5108384;28;20043;-68
2021/03/01 05:34:26;;;;;;;38.03;13.77;;;3.70;99.90;;;;;;5107025;28;20082;-68
2021/03/01 05:36:52;;;;;;;41.85;14.20;;;3.70;99.90;;;;;;5110281;28;20126;-68
2021/03/01 05:39:17;;;;;;;43.17;15.25;;;3.70;99.90;;;;;;5106650;28;20480;-68
2021/03/01 05:41:46;;;;;;;46.35;13.27;;;3.70;99.90;;;;;;5106351;28;20443;-68
2021/03/01 05:44:12;;;;;;;35.00;12.35;;;3.70;99.90;;;;;;5110028;28;20034;-68
2021/03/01 05:46:41;;;;;;;36.92;12.35;;;3.70;99.90;;;;;;5105749;28;20043;-68
2021/03/01 05:49:07;;;;;;;41.13;12.85;;;3.70;99.90;;;;;;5109463;28;20089;-68
2021/03/01 05:51:36;;;;;;;30.75;12.50;;;3.80;99.90;;;;;;5111535;28;20168;-68
2021/03/01 05:54:02;;;;;;;24.85;10.30;;;3.80;99.90;;;;;;5109701;28;20077;-68
2021/03/01 05:56:29;;;;;;;24.55;11.35;;;3.90;99.90;;;;;;5109997;28;20054;-68
2021/03/01 05:58:55;;;;;;;29.23;12.10;;;3.80;99.90;;;;;;5108714;27;20042;-68
2021/03/01 06:01:24;;;;;;;29.30;10.95;;;3.80;99.90;;;;;;5106519;28;20067;-68
2021/03/01 06:03:50;;;;;;;26.02;10.10;;;3.80;99.90;;;;;;5109386;28;20405;-68
2021/03/01 06:06:16;;;;;;;22.40;10.00;;;3.90;99.90;;;;;;5109061;28;20044;-68
2021/03/01 06:08:41;;;;;;;26.05;9.88;;;3.90;99.90;;;;;;5110661;28;20042;-68
2021/03/01 06:11:08;;;;;;;28.88;11.88;;;3.90;99.90;;;;;;5092670;28;20042;-68
2021/03/01 06:13:36;;;;;;;25.08;9.90;;;3.90;99.90;;;;;;5108891;28;20039;-68
2021/03/01 06:16:04;;;;;;;23.25;11.60;;;3.90;99.90;;;;;;5084452;28;20039;-68
2021/03/01 06:18:30;;;;;;;22.85;9.80;;;3.90;99.90;;;;;;5111536;27;20047;-68
2021/03/01 06:21:17;;;;;;;23.52;9.45;;;3.90;99.90;;;;;;5111209;28;20076;-68
2021/03/01 06:23:44;;;;;;;15.77;8.38;;;3.90;99.90;;;;;;5111130;28;20117;-68
2021/03/01 06:26:32;;;;;;;20.33;9.98;;;3.90;99.90;;;;;;5109766;28;20536;-68
2021/03/01 06:29:03;;;;;;;17.45;8.13;;;3.90;99.90;;;;;;5105676;27;20032;-68
2021/03/01 06:31:40;;;;;;;18.33;9.63;;;3.90;99.90;;;;;;5105528;28;20043;-68
2021/03/01 06:34:29;;;;;;;20.25;9.85;;;4.00;99.90;;;;;;5104310;28;20439;-68
2021/03/01 06:37:18;;;;;;;21.90;8.93;;;4.00;99.90;;;;;;5107133;28;20044;-68
2021/03/01 06:39:51;;;;;;;22.60;8.13;;;3.90;99.90;;;;;;5107549;28;20055;-68
2021/03/01 06:42:20;;;;;;;16.05;8.27;;;3.90;99.90;;;;;;5107885;27;20042;-68
2021/03/01 06:44:59;;;;;;;13.95;7.78;;;4.00;99.90;;;;;;5109236;28;20542;-69
2021/03/01 06:47:48;;;;;;;19.08;8.73;;;4.00;99.90;;;;;;5106854;28;20168;-68
2021/03/01 06:50:24;;;;;;;18.05;7.68;;;4.00;99.90;;;;;;5106853;28;20489;-68
2021/03/01 06:52:49;;;;;;;;;;;4.00;99.90;;;;;;5110776;28;20070;-68
2021/03/01 06:55:16;;;;;;;20.33;7.78;;;4.00;99.90;;;;;;5108935;28;20377;-68
2021/03/01 06:57:41;;;;;;;23.58;8.13;;;4.00;99.90;;;;;;5110834;28;20053;-68
2021/03/01 07:00:08;;;;;;;16.23;8.13;;;4.20;99.90;;;;;;5108373;28;20286;-68
2021/03/01 07:02:40;;;;;;;18.55;7.60;;;4.10;99.90;;;;;;5103922;28;20039;-68
2021/03/01 07:05:07;;;;;;;15.55;7.50;;;4.10;99.90;;;;;;5102053;28;20108;-68
2021/03/01 07:07:35;;;;;;;16.30;7.93;;;4.10;99.90;;;;;;5103441;28;20063;-68
2021/03/01 07:10:03;;;;;;;18.00;7.90;;;4.10;99.90;;;;;;5104840;28;20036;-68
2021/03/01 07:12:46;;;;;;;12.80;6.65;;;4.20;99.90;;;;;;5099985;27;20075;-68
2021/03/01 07:15:13;;;;;;;12.77;6.57;;;4.20;99.90;;;;;;5082374;28;20032;-69
2021/03/01 07:17:43;;;;;;;13.02;5.88;;;4.20;99.90;;;;;;5082858;28;20032;-68
2021/03/01 07:20:15;;;;;;;12.30;5.88;;;4.20;99.90;;;;;;5084632;28;20062;-69
2021/03/01 07:22:44;;;;;;;12.65;5.32;;;4.60;99.90;;;;;;5063488;28;20048;-68
2021/03/01 07:25:13;;;;;;;13.65;6.15;;;4.20;99.90;;;;;;5083117;27;20098;-69
2021/03/01 07:27:43;;;;;;;16.02;6.68;;;4.20;99.90;;;;;;5084415;28;21320;-69
2021/03/01 07:30:11;;;;;;;16.33;6.25;;;4.20;99.90;;;;;;5084194;28;20385;-68
2021/03/01 07:32:40;;;;;;;10.90;5.70;;;4.30;99.90;;;;;;5084295;27;20065;-68
2021/03/01 07:35:08;;;;;;;15.73;6.80;;;4.30;99.90;;;;;;5086979;28;20071;-68
2021/03/01 07:37:36;;;;;;;13.98;6.45;;;4.30;99.90;;;;;;5084910;28;20039;-69
2021/03/01 07:40:07;;;;;;;17.17;7.05;;;4.40;99.90;;;;;;5101157;28;20050;-69
2021/03/01 07:42:36;;;;;;;16.92;7.10;;;4.30;99.90;;;;;;5094868;28;20039;-69
2021/03/01 07:45:02;;;;;;;21.30;6.70;;;4.40;99.90;;;;;;5086698;28;20039;-68
2021/03/01 07:47:29;;;;;;;17.98;7.93;;;4.40;99.90;;;;;;5083001;27;20040;-68
2021/03/01 07:49:55;;;;;;;17.92;6.78;;;4.40;99.90;;;;;;5086017;28;20040;-68
2021/03/01 07:52:21;;;;;;;19.17;8.05;;;4.50;99.90;;;;;;5082633;28;20075;-69
2021/03/01 07:55:07;;;;;;;18.85;8.35;;;4.40;99.90;;;;;;5081442;28;20142;-68
2021/03/01 07:57:34;;;;;;;15.85;7.30;;;4.40;99.90;;;;;;5083759;28;20040;-68
2021/03/01 08:00:24;;;;;;;13.82;5.70;;;4.50;99.90;;;;;;5082911;28;20043;-69
2021/03/01 08:02:50;;;;;;;12.18;5.82;;;4.50;99.90;;;;;;5069601;28;21578;-68
2021/03/01 08:05:29;;;;;;;12.95;6.05;;;4.50;99.90;;;;;;5083592;28;20031;-69
2021/03/01 08:07:55;;;;;;;16.38;6.72;;;4.50;99.90;;;;;;5082067;28;20056;-68
2021/03/01 08:10:27;;;;;;;12.70;6.72;;;4.60;99.90;;;;;;5081440;28;20066;-69
2021/03/01 08:12:54;;;;;;;15.77;6.82;;;4.60;99.90;;;;;;5086356;27;20067;-68
2021/03/01 08:15:22;;;;;;;12.73;6.30;;;4.60;99.90;;;;;;5085390;28;20336;-68
2021/03/01 08:17:51;;;;;;;15.23;6.32;;;4.60;99.90;;;;;;5084858;28;20035;-68
2021/03/01 08:20:23;;;;;;;13.02;7.22;;;4.70;99.90;;;;;;5085856;28;20055;-68
2021/03/01 08:23:04;;;;;;;18.88;8.43;;;4.70;99.90;;;;;;5084824;28;20039;-69
2021/03/01 08:25:42;;;;;;;14.68;7.50;;;4.70;99.90;;;;;;5084726;28;20086;-68
2021/03/01 08:28:24;;;;;;;17.25;7.65;;;4.60;99.90;;;;;;5082284;28;20095;-68
2021/03/01 08:30:54;;;;;;;13.70;6.65;;;4.70;99.90;;;;;;5089676;28;20048;-68
2021/03/01 08:33:20;;;;;;;15.75;7.43;;;4.80;99.90;;;;;;5083960;28;20458;-68
2021/03/01 08:36:13;;;;;;;15.73;6.68;;;4.70;99.90;;;;;;5083854;28;20071;-68
2021/03/01 08:38:49;;;;;;;14.00;7.03;;;4.80;99.90;;;;;;5081483;28;20550;-68
2021/03/01 08:41:29;;;;;;;14.57;7.28;;;4.70;99.90;;;;;;5081435;28;20069;-69
2021/03/01 08:43:57;;;;;;;15.68;7.35;;;4.70;99.90;;;;;;5085378;28;20066;-68
2021/03/01 08:46:23;;;;;;;14.82;6.68;;;4.70;99.90;;;;;;5082397;28;20036;-68
2021/03/01 08:48:51;;;;;;;15.02;7.57;;;4.80;99.90;;;;;;5087134;28;20047;-68
2021/03/01 08:51:17;;;;;;;16.02;6.63;;;4.80;99.90;;;;;;5081619;28;20040;-68
2021/03/01 08:53:44;;;;;;;18.40;7.40;;;4.70;99.90;;;;;;5063457;28;20051;-68
2021/03/01 08:56:36;;;;;;;12.95;6.32;;;4.80;99.90;;;;;;5084130;28;20040;-68
2021/03/01 08:59:16;;;;;;;15.65;6.80;;;4.90;99.90;;;;;;5078259;28;20039;-68
2021/03/01 09:01:51;;;;;;;16.80;6.78;;;4.90;99.90;;;;;;5089360;28;20039;-69
2021/03/01 09:04:16;;;;;;;15.38;6.50;;;5.00;99.90;;;;;;5084218;28;20047;-68
2021/03/01 09:06:42;;;;;;;11.68;5.57;;;4.90;99.90;;;;;;5084098;28;20563;-68
2021/03/01 09:09:08;;;;;;;11.55;6.55;;;4.90;99.90;;;;;;5081603;28;20822;-68
2021/03/01 09:11:36;;;;;;;12.07;7.03;;;4.90;99.90;;;;;;5086470;28;20090;-68
2021/03/01 09:14:06;;;;;;;17.33;7.97;;;4.90;99.90;;;;;;5083558;28;20048;-68
2021/03/01 09:16:34;;;;;;;13.13;7.25;;;5.10;99.90;;;;;;5081434;28;20032;-68
2021/03/01 09:19:12;;;;;;;13.13;7.47;;;5.10;99.90;;;;;;5084052;28;20040;-68
2021/03/01 09:21:43;;;;;;;13.63;6.85;;;5.20;99.90;;;;;;5081391;28;20044;-68
2021/03/01 09:24:10;;;;;;;14.48;6.18;;;5.10;99.90;;;;;;5081996;28;20044;-68
2021/03/01 09:26:39;;;;;;;15.18;6.22;;;5.30;99.90;;;;;;5082731;28;20604;-69
2021/03/01 09:29:17;;;;;;;10.55;5.25;;;5.40;99.90;;;;;;5084268;28;20097;-69
2021/03/01 09:31:51;;;;;;;11.02;4.43;;;5.60;99.90;;;;;;5081201;28;20043;-68
2021/03/01 09:34:18;;;;;;;11.07;5.30;;;5.50;99.90;;;;;;5081989;28;20044;-68
2021/03/01 09:36:48;;;;;;;12.07;5.00;;;5.40;99.90;;;;;;5082689;28;20024;-68
2021/03/01 09:39:22;;;;;;;10.60;5.40;;;5.50;99.90;;;;;;5083585;28;20474;-68
2021/03/01 09:41:49;;;;;;;13.38;5.30;;;5.50;99.90;;;;;;5081714;28;20118;-69
2021/03/01 09:44:27;;;;;;;9.27;4.82;;;5.60;99.90;;;;;;5080605;28;20064;-68
2021/03/01 09:46:55;;;;;;;9.27;5.13;;;5.60;99.90;;;;;;5080260;28;20710;-68
2021/03/01 09:49:21;;;;;;;9.65;5.18;;;5.60;99.90;;;;;;5076850;28;20050;-68
2021/03/01 09:51:48;;;;;;;7.47;4.78;;;5.50;99.90;;;;;;5078346;28;20040;-69
2021/03/01 09:54:14;;;;;;;11.43;4.70;;;5.60;99.90;;;;;;5080629;28;20059;-68
2021/03/01 09:56:42;;;;;;;8.20;4.53;;;5.70;99.90;;;;;;5086208;28;20040;-68
2021/03/01 09:59:08;;;;;;;12.82;5.38;;;6.00;99.90;;;;;;5083001;28;20032;-69
2021/03/01 10:01:34;;;;;;;9.57;3.90;;;6.20;99.90;;;;;;5092410;28;20077;-69
2021/03/01 10:03:59;;;;;;;9.82;4.50;;;6.20;99.90;;;;;;5085699;28;20122;-69
2021/03/01 10:06:33;;;;;;;7.35;4.43;;;6.00;99.90;;;;;;5088165;28;20046;-69
2021/03/01 10:09:08;;;;;;;8.32;4.40;;;6.40;99.90;;;;;;5082502;28;20031;-69
2021/03/01 10:11:34;;;;;;;9.40;4.07;;;6.50;99.90;;;;;;5083289;28;21082;-69
2021/03/01 10:14:09;;;;;;;7.57;4.30;;;6.60;99.90;;;;;;5083934;28;21138;-69
2021/03/01 10:16:35;;;;;;;8.15;4.40;;;6.60;99.20;;;;;;5084404;27;20040;-69
2021/03/01 10:19:15;;;;;;;9.93;4.07;;;6.40;99.10;;;;;;5085940;28;20046;-69
2021/03/01 10:21:43;;;;;;;9.52;3.85;;;6.20;99.10;;;;;;5084865;28;20120;-69
2021/03/01 10:24:11;;;;;;;9.27;4.28;;;6.20;99.90;;;;;;5083588;28;20036;-69
2021/03/01 10:26:52;;;;;;;9.07;4.28;;;6.10;99.90;;;;;;5083543;28;20494;-69
2021/03/01 10:29:18;;;;;;;7.03;4.05;;;6.00;99.90;;;;;;5083816;28;20106;-69
2021/03/01 10:31:43;;;;;;;10.50;4.40;;;6.00;99.90;;;;;;5084436;27;20048;-69
2021/03/01 10:34:11;;;;;;;10.30;4.65;;;6.20;99.90;;;;;;5086620;28;20067;-69
2021/03/01 10:36:39;;;;;;;9.55;3.92;;;6.40;99.80;;;;;;5085389;28;20040;-69
2021/03/01 10:39:25;;;;;;;6.95;4.03;;;6.60;99.20;;;;;;5086063;28;20095;-69
2021/03/01 10:41:54;;;;;;;10.30;4.07;;;6.60;99.30;;;;;;5084611;28;20047;-69
2021/03/01 10:44:31;;;;;;;7.00;3.55;;;6.70;99.40;;;;;;5071244;28;20039;-69
2021/03/01 10:47:10;;;;;;;12.18;3.63;;;6.80;98.40;;;;;;5083703;27;20028;-69
2021/03/01 10:49:36;;;;;;;12.38;4.22;;;6.60;98.20;;;;;;5082253;28;20508;-69
2021/03/01 10:52:02;;;;;;;7.68;3.30;;;6.70;99.30;;;;;;5083627;28;20283;-68
2021/03/01 10:54:28;;;;;;;12.68;4.13;;;6.80;98.40;;;;;;5085600;28;20038;-69
2021/03/01 10:56:56;;;;;;;9.98;3.40;;;6.90;98.20;;;;;;5084016;28;20105;-69
2021/03/01 10:59:22;;;;;;;8.40;3.92;;;7.10;99.00;;;;;;5086287;28;20500;-69
2021/03/01 11:01:48;;;;;;;8.95;3.83;;;7.10;98.10;;;;;;5068052;28;20048;-69
2021/03/01 11:04:15;;;;;;;9.73;4.90;;;7.00;96.80;;;;;;5085014;28;20048;-69
2021/03/01 11:06:41;;;;;;;5.78;2.92;;;7.20;97.30;;;;;;5087170;28;20085;-69
2021/03/01 11:09:09;;;;;;;8.95;3.10;;;7.20;96.70;;;;;;5081734;28;20159;-69
2021/03/01 11:11:36;;;;;;;5.45;2.88;;;7.30;97.40;;;;;;5084769;28;20077;-69
2021/03/01 11:14:03;;;;;;;10.55;3.50;;;7.30;96.50;;;;;;5085242;28;20495;-69
2021/03/01 11:16:29;;;;;;;6.60;3.05;;;7.40;97.80;;;;;;5082163;27;20575;-69
2021/03/01 11:18:55;;;;;;;9.77;4.18;;;7.60;96.30;;;;;;5084696;28;20040;-69
2021/03/01 11:21:21;;;;;;;7.85;3.33;;;7.50;95.70;;;;;;5079740;28;20073;-69
2021/03/01 11:23:46;;;;;;;6.32;3.33;;;7.50;96.40;;;;;;5079860;28;20063;-69
2021/03/01 11:26:14;;;;;;;5.55;2.88;;;7.40;95.50;;;;;;5083124;27;20036;-68
2021/03/01 11:28:40;;;;;;;8.65;3.22;;;7.60;96.20;;;;;;5083728;28;20342;-69
2021/03/01 11:31:06;;;;;;;4.20;2.47;;;7.60;95.90;;;;;;5084349;27;20423;-69
2021/03/01 11:33:31;;;;;;;7.57;3.55;;;7.70;96.00;;;;;;5082184;28;20092;-69
2021/03/01 11:35:57;;;;;;;7.55;3.10;;;8.00;97.10;;;;;;5084217;28;20076;-69
2021/03/01 11:38:26;;;;;;;7.60;3.35;;;7.90;96.30;;;;;;5084940;27;20067;-69
2021/03/01 11:40:52;;;;;;;6.72;3.50;;;7.90;95.40;;;;;;5082645;28;20158;-69
2021/03/01 11:43:18;;;;;;;6.38;3.60;;;8.20;95.90;;;;;;5081411;28;20123;-69
2021/03/01 11:45:45;;;;;;;4.90;2.92;;;8.30;94.80;;;;;;5081575;28;20032;-69
2021/03/01 11:48:13;;;;;;;6.03;3.22;;;8.20;94.20;;;;;;5081723;28;20043;-69
2021/03/01 11:50:41;;;;;;;6.10;2.55;;;8.40;95.10;;;;;;5080741;28;20067;-69
2021/03/01 11:53:07;;;;;;;6.68;2.85;;;8.50;94.60;;;;;;5081776;28;20043;-69
2021/03/01 11:55:33;;;;;;;6.20;2.95;;;8.50;94.60;;;;;;5065388;28;20447;-69
2021/03/01 11:57:58;;;;;;;7.63;3.20;;;8.80;92.20;;;;;;5083789;28;20028;-69
2021/03/01 12:00:24;;;;;;;5.88;2.67;;;8.70;92.60;;;;;;5081740;28;20036;-69
2021/03/01 12:02:50;;;;;;;6.90;2.92;;;8.60;91.50;;;;;;5086579;28;20476;-69
2021/03/01 12:05:15;;;;;;;4.63;3.00;;;8.60;92.30;;;;;;5086476;28;20403;-69
2021/03/01 12:07:41;;;;;;;7.15;2.75;;;8.70;91.80;;;;;;5096472;28;20038;-69
2021/03/01 12:10:08;;;;;;;6.63;3.08;;;8.70;91.20;;;;;;5095604;28;20075;-69
2021/03/01 12:12:34;;;;;;;4.78;2.17;;;8.80;92.50;;;;;;5097151;27;20063;-69
2021/03/01 12:14:59;;;;;;;5.43;2.78;;;8.80;91.70;;;;;;5096827;28;20485;-69
2021/03/01 12:17:25;;;;;;;6.30;2.58;;;8.80;90.90;;;;;;5099191;28;20028;-69
2021/03/01 12:19:51;;;;;;;7.88;3.22;;;8.90;90.90;;;;;;5105142;28;20038;-69
2021/03/01 12:22:16;;;;;;;5.80;2.58;;;8.90;92.50;;;;;;5100346;28;20044;-69
2021/03/01 12:24:42;;;;;;;8.07;2.70;;;9.10;92.30;;;;;;5097239;28;20043;-69
2021/03/01 12:27:08;;;;;;;6.93;2.53;;;9.40;91.70;;;;;;5084128;28;20560;-69
2021/03/01 12:29:34;;;;;;;5.90;2.92;;;9.30;87.90;;;;;;5101498;28;20722;-68
2021/03/01 12:31:59;;;;;;;7.35;3.22;;;9.30;90.00;;;;;;5101408;27;20578;-69
2021/03/01 12:34:25;;;;;;;6.38;2.97;;;9.30;91.50;;;;;;5087239;28;20370;-69
2021/03/01 12:36:51;;;;;;;7.22;3.17;;;9.40;90.20;;;;;;5100099;28;20470;-69
2021/03/01 12:39:16;;;;;;;5.75;2.88;;;9.40;90.20;;;;;;5105812;28;20035;-68
2021/03/01 12:41:42;;;;;;;5.88;2.92;;;9.40;90.10;;;;;;5101211;28;20478;-69
2021/03/01 12:44:08;;;;;;;7.43;2.70;;;9.50;88.20;;;;;;5106461;28;20054;-68
2021/03/01 12:46:34;;;;;;;5.28;2.35;;;9.60;90.30;;;;;;5102922;28;20040;-69
2021/03/01 12:49:00;;;;;;;5.50;2.83;;;9.60;87.80;;;;;;5102680;28;20140;-69